Strona główna
METAR-TAF:

METAR-TAF

Lotnisko :

Oswego County Airport

Fulton, Nowy Jork, Stany Zjednoczone

Szerokość geograficzna: 43-21-03N, Długość geograficzna: 076-23-17W, wysokość: 145 m

Aktualna obserwacja pogody

Raport powstał 39 minut temu, godzina 18:54 UTC
Wiatr 4 kt od południowy wschód
Temperatura -2°C
Wilgotność 54%
Ciśnienie 1019 hPa
Widzialność: 16.1 km
Przerywane chmury na wysokości 6000 ft

METAR: KFZY 251854Z AUTO 14004KT 10SM BKN060 M02/M10 A3010 RMK AO2 SLP200 T10221100

czas: 14:33 (19:33 UTC)


TAF: brakujący

Obserwacja i prognoza pogody dla ponad 4000 lotnisk (raport METAR i TAF).

Dostępne stacje oznaczono żółtymi i czerwonymi punktami na mapie.

Najedź kursorem aby zobaczyć nazwę stacji.

Kliknij aby zobaczyć obserwacje i prognozy pogody.

Aby zmienić mapę: kliknij na zielony przycisk z czarnym krzyżykiem, aby powiększyć; na zielony przycisk z myślnikiem, aby pomniejszyć; na zielone strzałki, aby przejść do map sąsiednich.


METAR-TAF: